Matagami Airport
CYNM : now visible

Airfield :











YOU CAN JOIN US ON...

 
LOGIN :

Register | Disclaimer

   EN    FR    IT 

 









Legend :    VFR   Marginal VFR   IFR   Intensive IFR   Very Intensive IFR
Visi :
Ceiling :
>= 8 km
>= 3000ft
5 to 8 km
1000 to 3000 ft
1500m to 5 km
500 to 1000 ft
800 to 1500m
200 to 500 ft
< 800m
< 200 ft
Symbols :   Thunderstorms  Fog  Heavy snow  Heavy precipitations  Wind > 20 kt






- Airport Elevation : 918 ft
- IATA code : YNM


CYNM - Matagami

CURRENT METAR :
  • 080804Z AUTO 18013G20KT 9SM OVC014 M06/M07 A2985 RMK SLP130

EXPIRED METARs :
  • 080739Z AUTO 18014G22KT 9SM -SN OVC016 M06/M08 A2986 RMK SLP137
  • 080720Z AUTO 18016KT 9SM BKN017 OVC025 M07/M08 A2988 RMK SLP141
  • 080718Z AUTO 17014KT 9SM -SN BKN019 OVC025 M07/M08 A2988 RMK SLP141
  • 080700Z AUTO 17013G20KT 9SM OVC027 M07/M08 A2989 RMK PRESFR SLP146
  • 080600Z AUTO 17010G17KT 9SM OVC027 M08/M09 A2995 RMK PRESFR SLP167

TAF N/A



MET'MAP, your aeronautical weather chart ! - Copyright ORBIFLY December 2007 - Disclaimer

ORBIFLY MET'MAP TEAM :

Programming & Development : Alexandra Zaïnal
Concept & original design : Baudouin d'Aumeries
Assistance for programming : Marc-Olivier Méhu
Technical & hardware support : Manuel Goepfert

Contact : metmap@orbifly.com




SOURCES & CREDITS :

   NOAA       Earth
Advisory